sensor_id;sensor_type;location;lat;lon;timestamp;P1;durP1;ratioP1;P2;durP2;ratioP2
28577;SDS011;15769;52.248;15.818;2023-02-05T00:03:41;35.83;;;10.80;;
28577;SDS011;15769;52.248;15.818;2023-02-05T00:08:45;22.15;;;7.57;;
28577;SDS011;15769;52.248;15.818;2023-02-05T00:13:50;31.08;;;9.93;;
28577;SDS011;15769;52.248;15.818;2023-02-05T00:18:57;32.97;;;10.77;;
28577;SDS011;15769;52.248;15.818;2023-02-05T00:24:00;15.03;;;6.37;;
28577;SDS011;15769;52.248;15.818;2023-02-05T00:29:03;22.10;;;9.30;;
28577;SDS011;15769;52.248;15.818;2023-02-05T00:34:06;27.45;;;9.98;;
28577;SDS011;15769;52.248;15.818;2023-02-05T00:39:08;32.65;;;10.48;;
28577;SDS011;15769;52.248;15.818;2023-02-05T00:44:12;29.17;;;10.18;;
28577;SDS011;15769;52.248;15.818;2023-02-05T00:49:15;64.03;;;18.10;;
28577;SDS011;15769;52.248;15.818;2023-02-05T00:54:19;43.65;;;15.18;;
28577;SDS011;15769;52.248;15.818;2023-02-05T00:59:21;48.30;;;15.43;;
28577;SDS011;15769;52.248;15.818;2023-02-05T01:09:28;28.55;;;12.25;;
28577;SDS011;15769;52.248;15.818;2023-02-05T01:14:33;31.57;;;11.23;;
28577;SDS011;15769;52.248;15.818;2023-02-05T01:19:35;29.42;;;12.23;;
28577;SDS011;15769;52.248;15.818;2023-02-05T01:24:38;33.03;;;10.97;;
28577;SDS011;15769;52.248;15.818;2023-02-05T01:29:40;26.08;;;9.95;;
28577;SDS011;15769;52.248;15.818;2023-02-05T01:34:43;34.80;;;13.20;;
28577;SDS011;15769;52.248;15.818;2023-02-05T01:39:47;20.13;;;8.32;;
28577;SDS011;15769;52.248;15.818;2023-02-05T01:55:58;26.40;;;9.45;;
28577;SDS011;15769;52.248;15.818;2023-02-05T02:01:03;95.45;;;31.50;;
28577;SDS011;15769;52.248;15.818;2023-02-05T02:06:06;53.70;;;18.67;;
28577;SDS011;15769;52.248;15.818;2023-02-05T02:11:15;31.40;;;11.77;;
28577;SDS011;15769;52.248;15.818;2023-02-05T02:16:20;28.95;;;10.57;;
28577;SDS011;15769;52.248;15.818;2023-02-05T02:27:13;85.38;;;24.42;;
28577;SDS011;15769;52.248;15.818;2023-02-05T02:37:57;51.25;;;18.63;;
28577;SDS011;15769;52.248;15.818;2023-02-05T02:48:27;93.07;;;30.73;;
28577;SDS011;15769;52.248;15.818;2023-02-05T02:53:35;98.18;;;32.85;;
28577;SDS011;15769;52.248;15.818;2023-02-05T02:58:49;103.85;;;36.22;;
28577;SDS011;15769;52.248;15.818;2023-02-05T03:03:57;103.05;;;38.13;;
28577;SDS011;15769;52.248;15.818;2023-02-05T03:09:03;88.90;;;34.17;;
28577;SDS011;15769;52.248;15.818;2023-02-05T03:14:10;55.33;;;23.25;;
28577;SDS011;15769;52.248;15.818;2023-02-05T03:19:13;30.88;;;13.10;;
28577;SDS011;15769;52.248;15.818;2023-02-05T03:24:15;27.93;;;13.07;;
28577;SDS011;15769;52.248;15.818;2023-02-05T03:29:22;41.88;;;19.38;;
28577;SDS011;15769;52.248;15.818;2023-02-05T03:35:12;41.95;;;17.65;;
28577;SDS011;15769;52.248;15.818;2023-02-05T03:51:45;61.75;;;24.20;;
28577;SDS011;15769;52.248;15.818;2023-02-05T03:56:57;107.63;;;39.00;;
28577;SDS011;15769;52.248;15.818;2023-02-05T04:02:06;83.65;;;34.63;;
28577;SDS011;15769;52.248;15.818;2023-02-05T04:07:14;49.03;;;24.10;;
28577;SDS011;15769;52.248;15.818;2023-02-05T04:12:18;42.35;;;21.25;;
28577;SDS011;15769;52.248;15.818;2023-02-05T04:17:22;31.38;;;13.80;;
28577;SDS011;15769;52.248;15.818;2023-02-05T04:22:24;22.05;;;9.15;;
28577;SDS011;15769;52.248;15.818;2023-02-05T04:27:28;16.67;;;7.50;;
28577;SDS011;15769;52.248;15.818;2023-02-05T04:32:34;36.53;;;14.52;;
28577;SDS011;15769;52.248;15.818;2023-02-05T04:37:37;122.18;;;38.08;;
28577;SDS011;15769;52.248;15.818;2023-02-05T04:42:41;109.45;;;34.72;;
28577;SDS011;15769;52.248;15.818;2023-02-05T04:47:44;89.05;;;31.75;;
28577;SDS011;15769;52.248;15.818;2023-02-05T04:52:50;65.13;;;28.75;;
28577;SDS011;15769;52.248;15.818;2023-02-05T04:57:52;69.00;;;26.87;;
28577;SDS011;15769;52.248;15.818;2023-02-05T05:02:55;44.30;;;18.13;;
28577;SDS011;15769;52.248;15.818;2023-02-05T05:08:01;35.50;;;16.23;;
28577;SDS011;15769;52.248;15.818;2023-02-05T05:13:04;25.87;;;12.60;;
28577;SDS011;15769;52.248;15.818;2023-02-05T05:18:11;36.72;;;17.50;;
28577;SDS011;15769;52.248;15.818;2023-02-05T05:23:15;52.70;;;22.65;;
28577;SDS011;15769;52.248;15.818;2023-02-05T05:28:17;62.97;;;26.90;;
28577;SDS011;15769;52.248;15.818;2023-02-05T05:33:20;64.28;;;24.38;;
28577;SDS011;15769;52.248;15.818;2023-02-05T05:38:23;77.00;;;30.48;;
28577;SDS011;15769;52.248;15.818;2023-02-05T05:43:25;70.17;;;29.53;;
28577;SDS011;15769;52.248;15.818;2023-02-05T05:48:47;73.43;;;28.60;;
28577;SDS011;15769;52.248;15.818;2023-02-05T05:53:51;352.50;;;101.77;;
28577;SDS011;15769;52.248;15.818;2023-02-05T05:58:54;317.37;;;94.07;;
28577;SDS011;15769;52.248;15.818;2023-02-05T06:03:57;268.98;;;93.00;;
28577;SDS011;15769;52.248;15.818;2023-02-05T06:09:00;329.80;;;122.07;;
28577;SDS011;15769;52.248;15.818;2023-02-05T06:14:02;465.23;;;149.67;;
28577;SDS011;15769;52.248;15.818;2023-02-05T06:19:05;234.00;;;77.40;;
28577;SDS011;15769;52.248;15.818;2023-02-05T06:24:07;221.73;;;75.90;;
28577;SDS011;15769;52.248;15.818;2023-02-05T06:29:12;173.63;;;62.03;;
28577;SDS011;15769;52.248;15.818;2023-02-05T06:34:15;118.50;;;47.37;;
28577;SDS011;15769;52.248;15.818;2023-02-05T06:39:21;85.68;;;34.67;;
28577;SDS011;15769;52.248;15.818;2023-02-05T06:44:27;75.57;;;30.40;;
28577;SDS011;15769;52.248;15.818;2023-02-05T06:49:50;130.53;;;50.47;;
28577;SDS011;15769;52.248;15.818;2023-02-05T06:56:04;117.70;;;47.77;;
28577;SDS011;15769;52.248;15.818;2023-02-05T07:01:10;126.67;;;48.20;;
28577;SDS011;15769;52.248;15.818;2023-02-05T07:06:13;89.47;;;34.77;;
28577;SDS011;15769;52.248;15.818;2023-02-05T07:11:18;66.30;;;27.57;;
28577;SDS011;15769;52.248;15.818;2023-02-05T07:16:21;63.47;;;27.05;;
28577;SDS011;15769;52.248;15.818;2023-02-05T07:21:23;49.20;;;17.60;;
28577;SDS011;15769;52.248;15.818;2023-02-05T07:27:00;90.82;;;31.25;;
28577;SDS011;15769;52.248;15.818;2023-02-05T07:32:31;117.10;;;44.03;;
28577;SDS011;15769;52.248;15.818;2023-02-05T07:37:35;157.43;;;63.50;;
28577;SDS011;15769;52.248;15.818;2023-02-05T07:42:38;120.90;;;60.53;;
28577;SDS011;15769;52.248;15.818;2023-02-05T07:47:42;61.35;;;29.58;;
28577;SDS011;15769;52.248;15.818;2023-02-05T07:52:45;74.57;;;32.43;;
28577;SDS011;15769;52.248;15.818;2023-02-05T07:57:47;55.47;;;27.35;;
28577;SDS011;15769;52.248;15.818;2023-02-05T08:02:53;61.63;;;26.88;;
28577;SDS011;15769;52.248;15.818;2023-02-05T08:08:03;20.85;;;9.60;;
28577;SDS011;15769;52.248;15.818;2023-02-05T08:13:10;22.73;;;14.35;;
28577;SDS011;15769;52.248;15.818;2023-02-05T08:18:28;22.17;;;11.05;;
28577;SDS011;15769;52.248;15.818;2023-02-05T08:23:33;22.95;;;13.55;;
28577;SDS011;15769;52.248;15.818;2023-02-05T08:28:38;29.88;;;16.85;;
28577;SDS011;15769;52.248;15.818;2023-02-05T08:33:41;64.05;;;34.00;;
28577;SDS011;15769;52.248;15.818;2023-02-05T08:38:44;51.67;;;29.17;;
28577;SDS011;15769;52.248;15.818;2023-02-05T08:43:47;26.08;;;14.13;;
28577;SDS011;15769;52.248;15.818;2023-02-05T08:48:50;22.67;;;12.40;;
28577;SDS011;15769;52.248;15.818;2023-02-05T08:53:54;22.73;;;12.02;;
28577;SDS011;15769;52.248;15.818;2023-02-05T08:58:58;39.83;;;24.20;;
28577;SDS011;15769;52.248;15.818;2023-02-05T09:04:00;56.07;;;33.00;;
28577;SDS011;15769;52.248;15.818;2023-02-05T09:09:02;53.63;;;32.08;;
28577;SDS011;15769;52.248;15.818;2023-02-05T09:14:05;36.25;;;19.17;;
28577;SDS011;15769;52.248;15.818;2023-02-05T09:19:08;34.90;;;17.70;;
28577;SDS011;15769;52.248;15.818;2023-02-05T09:24:11;25.05;;;12.98;;
28577;SDS011;15769;52.248;15.818;2023-02-05T09:29:13;19.03;;;9.23;;
28577;SDS011;15769;52.248;15.818;2023-02-05T09:34:17;13.88;;;7.00;;
28577;SDS011;15769;52.248;15.818;2023-02-05T09:39:19;9.73;;;5.28;;
28577;SDS011;15769;52.248;15.818;2023-02-05T09:50:23;36.03;;;16.77;;
28577;SDS011;15769;52.248;15.818;2023-02-05T09:55:37;47.28;;;22.02;;
28577;SDS011;15769;52.248;15.818;2023-02-05T10:00:44;113.63;;;49.42;;
28577;SDS011;15769;52.248;15.818;2023-02-05T10:11:31;86.75;;;38.75;;
28577;SDS011;15769;52.248;15.818;2023-02-05T10:16:56;31.70;;;18.30;;
28577;SDS011;15769;52.248;15.818;2023-02-05T10:22:27;25.92;;;12.90;;
28577;SDS011;15769;52.248;15.818;2023-02-05T10:27:36;25.88;;;12.55;;
28577;SDS011;15769;52.248;15.818;2023-02-05T10:32:55;18.98;;;10.15;;
28577;SDS011;15769;52.248;15.818;2023-02-05T10:37:59;13.52;;;7.18;;
28577;SDS011;15769;52.248;15.818;2023-02-05T10:43:04;43.63;;;13.70;;
28577;SDS011;15769;52.248;15.818;2023-02-05T10:53:49;9.30;;;4.88;;
28577;SDS011;15769;52.248;15.818;2023-02-05T10:58:55;12.43;;;7.18;;
28577;SDS011;15769;52.248;15.818;2023-02-05T11:04:00;20.15;;;12.00;;
28577;SDS011;15769;52.248;15.818;2023-02-05T11:09:11;11.50;;;6.10;;
28577;SDS011;15769;52.248;15.818;2023-02-05T11:14:28;14.18;;;7.53;;
28577;SDS011;15769;52.248;15.818;2023-02-05T11:19:36;14.13;;;8.07;;
28577;SDS011;15769;52.248;15.818;2023-02-05T11:24:39;34.17;;;15.48;;
28577;SDS011;15769;52.248;15.818;2023-02-05T11:29:41;41.35;;;18.55;;
28577;SDS011;15769;52.248;15.818;2023-02-05T11:34:45;61.28;;;23.27;;
28577;SDS011;15769;52.248;15.818;2023-02-05T11:39:50;28.88;;;14.55;;
28577;SDS011;15769;52.248;15.818;2023-02-05T11:44:58;23.17;;;9.35;;
28577;SDS011;15769;52.248;15.818;2023-02-05T11:50:03;20.85;;;11.73;;
28577;SDS011;15769;52.248;15.818;2023-02-05T11:55:21;11.40;;;6.00;;
28577;SDS011;15769;52.248;15.818;2023-02-05T12:00:26;8.45;;;4.72;;
28577;SDS011;15769;52.248;15.818;2023-02-05T12:05:34;7.63;;;4.05;;
28577;SDS011;15769;52.248;15.818;2023-02-05T12:26:27;7.93;;;3.72;;
28577;SDS011;15769;52.248;15.818;2023-02-05T12:36:53;10.25;;;4.85;;
28577;SDS011;15769;52.248;15.818;2023-02-05T12:42:13;11.95;;;5.60;;
28577;SDS011;15769;52.248;15.818;2023-02-05T12:58:00;11.23;;;5.20;;
28577;SDS011;15769;52.248;15.818;2023-02-05T13:13:42;4.70;;;3.30;;
28577;SDS011;15769;52.248;15.818;2023-02-05T13:19:00;7.65;;;3.88;;
28577;SDS011;15769;52.248;15.818;2023-02-05T13:24:20;9.25;;;4.57;;
28577;SDS011;15769;52.248;15.818;2023-02-05T13:29:46;12.05;;;5.68;;
28577;SDS011;15769;52.248;15.818;2023-02-05T13:34:52;9.43;;;5.63;;
28577;SDS011;15769;52.248;15.818;2023-02-05T13:40:08;11.45;;;5.25;;
28577;SDS011;15769;52.248;15.818;2023-02-05T14:01:54;10.80;;;5.63;;
28577;SDS011;15769;52.248;15.818;2023-02-05T14:07:00;14.20;;;6.47;;
28577;SDS011;15769;52.248;15.818;2023-02-05T14:12:05;11.80;;;6.78;;
28577;SDS011;15769;52.248;15.818;2023-02-05T14:27:48;14.23;;;6.83;;
28577;SDS011;15769;52.248;15.818;2023-02-05T14:37:57;28.88;;;13.93;;
28577;SDS011;15769;52.248;15.818;2023-02-05T14:43:15;13.43;;;6.75;;
28577;SDS011;15769;52.248;15.818;2023-02-05T14:48:30;16.83;;;8.32;;
28577;SDS011;15769;52.248;15.818;2023-02-05T14:53:35;12.35;;;6.63;;
28577;SDS011;15769;52.248;15.818;2023-02-05T15:03:45;24.85;;;9.85;;
28577;SDS011;15769;52.248;15.818;2023-02-05T15:08:51;21.77;;;9.70;;
28577;SDS011;15769;52.248;15.818;2023-02-05T15:19:24;24.25;;;10.32;;
28577;SDS011;15769;52.248;15.818;2023-02-05T15:24:38;26.45;;;10.80;;
28577;SDS011;15769;52.248;15.818;2023-02-05T15:29:45;24.85;;;11.10;;
28577;SDS011;15769;52.248;15.818;2023-02-05T15:34:50;28.73;;;11.02;;
28577;SDS011;15769;52.248;15.818;2023-02-05T15:39:55;23.63;;;11.32;;
28577;SDS011;15769;52.248;15.818;2023-02-05T15:45:14;27.00;;;11.48;;
28577;SDS011;15769;52.248;15.818;2023-02-05T15:50:26;24.75;;;11.23;;
28577;SDS011;15769;52.248;15.818;2023-02-05T15:55:29;30.83;;;14.07;;
28577;SDS011;15769;52.248;15.818;2023-02-05T16:00:33;28.83;;;12.17;;
28577;SDS011;15769;52.248;15.818;2023-02-05T16:05:38;35.72;;;15.88;;
28577;SDS011;15769;52.248;15.818;2023-02-05T16:10:50;39.03;;;15.80;;
28577;SDS011;15769;52.248;15.818;2023-02-05T16:21:34;33.28;;;14.38;;
28577;SDS011;15769;52.248;15.818;2023-02-05T16:26:41;30.70;;;14.25;;
28577;SDS011;15769;52.248;15.818;2023-02-05T16:31:48;31.60;;;14.30;;
28577;SDS011;15769;52.248;15.818;2023-02-05T16:36:59;64.88;;;30.73;;
28577;SDS011;15769;52.248;15.818;2023-02-05T16:47:26;99.35;;;49.30;;
28577;SDS011;15769;52.248;15.818;2023-02-05T16:52:31;330.38;;;114.13;;
28577;SDS011;15769;52.248;15.818;2023-02-05T16:57:37;232.73;;;86.50;;
28577;SDS011;15769;52.248;15.818;2023-02-05T17:07:43;153.68;;;59.92;;
28577;SDS011;15769;52.248;15.818;2023-02-05T17:18:19;91.25;;;39.72;;
28577;SDS011;15769;52.248;15.818;2023-02-05T17:23:24;58.60;;;25.23;;
28577;SDS011;15769;52.248;15.818;2023-02-05T17:28:26;64.25;;;30.80;;
28577;SDS011;15769;52.248;15.818;2023-02-05T17:33:31;50.00;;;24.13;;
28577;SDS011;15769;52.248;15.818;2023-02-05T17:38:34;52.17;;;24.35;;
28577;SDS011;15769;52.248;15.818;2023-02-05T17:43:37;63.25;;;27.08;;
28577;SDS011;15769;52.248;15.818;2023-02-05T17:48:40;59.50;;;27.03;;
28577;SDS011;15769;52.248;15.818;2023-02-05T17:53:43;56.83;;;23.77;;
28577;SDS011;15769;52.248;15.818;2023-02-05T17:58:46;127.97;;;47.28;;
28577;SDS011;15769;52.248;15.818;2023-02-05T18:03:49;152.23;;;55.85;;
28577;SDS011;15769;52.248;15.818;2023-02-05T18:08:52;162.85;;;58.47;;
28577;SDS011;15769;52.248;15.818;2023-02-05T18:13:56;249.83;;;90.37;;
28577;SDS011;15769;52.248;15.818;2023-02-05T18:18:58;294.98;;;105.30;;
28577;SDS011;15769;52.248;15.818;2023-02-05T18:24:02;283.15;;;105.03;;
28577;SDS011;15769;52.248;15.818;2023-02-05T18:29:05;272.35;;;100.80;;
28577;SDS011;15769;52.248;15.818;2023-02-05T18:34:08;311.40;;;115.10;;
28577;SDS011;15769;52.248;15.818;2023-02-05T18:39:10;291.13;;;105.23;;
28577;SDS011;15769;52.248;15.818;2023-02-05T18:44:13;407.75;;;137.60;;
28577;SDS011;15769;52.248;15.818;2023-02-05T18:49:18;325.02;;;120.97;;
28577;SDS011;15769;52.248;15.818;2023-02-05T18:54:21;327.23;;;120.53;;
28577;SDS011;15769;52.248;15.818;2023-02-05T18:59:24;339.45;;;126.68;;
28577;SDS011;15769;52.248;15.818;2023-02-05T19:04:28;361.80;;;137.80;;
28577;SDS011;15769;52.248;15.818;2023-02-05T19:09:34;354.08;;;133.98;;
28577;SDS011;15769;52.248;15.818;2023-02-05T19:14:37;311.67;;;116.60;;
28577;SDS011;15769;52.248;15.818;2023-02-05T19:19:40;575.00;;;219.75;;
28577;SDS011;15769;52.248;15.818;2023-02-05T19:24:42;433.92;;;151.38;;
28577;SDS011;15769;52.248;15.818;2023-02-05T19:29:45;475.03;;;160.33;;
28577;SDS011;15769;52.248;15.818;2023-02-05T19:34:48;447.05;;;154.18;;
28577;SDS011;15769;52.248;15.818;2023-02-05T19:39:51;428.05;;;153.80;;
28577;SDS011;15769;52.248;15.818;2023-02-05T19:44:54;414.75;;;151.75;;
28577;SDS011;15769;52.248;15.818;2023-02-05T19:49:58;409.08;;;142.82;;
28577;SDS011;15769;52.248;15.818;2023-02-05T19:55:02;387.35;;;139.73;;
28577;SDS011;15769;52.248;15.818;2023-02-05T20:00:07;343.63;;;131.80;;
28577;SDS011;15769;52.248;15.818;2023-02-05T20:05:13;345.02;;;130.55;;
28577;SDS011;15769;52.248;15.818;2023-02-05T20:10:18;347.00;;;128.35;;
28577;SDS011;15769;52.248;15.818;2023-02-05T20:15:21;327.98;;;122.47;;
28577;SDS011;15769;52.248;15.818;2023-02-05T20:20:23;305.23;;;117.82;;
28577;SDS011;15769;52.248;15.818;2023-02-05T20:25:35;312.05;;;116.50;;
28577;SDS011;15769;52.248;15.818;2023-02-05T20:30:40;351.27;;;127.80;;
28577;SDS011;15769;52.248;15.818;2023-02-05T20:36:02;236.75;;;90.68;;
28577;SDS011;15769;52.248;15.818;2023-02-05T20:41:13;347.20;;;129.38;;
28577;SDS011;15769;52.248;15.818;2023-02-05T20:46:16;367.90;;;133.85;;
28577;SDS011;15769;52.248;15.818;2023-02-05T20:51:25;389.33;;;142.05;;
28577;SDS011;15769;52.248;15.818;2023-02-05T20:56:28;402.53;;;141.77;;
28577;SDS011;15769;52.248;15.818;2023-02-05T21:01:32;414.30;;;147.10;;
28577;SDS011;15769;52.248;15.818;2023-02-05T21:06:36;393.42;;;143.18;;
28577;SDS011;15769;52.248;15.818;2023-02-05T21:11:40;347.35;;;131.02;;
28577;SDS011;15769;52.248;15.818;2023-02-05T21:16:43;332.38;;;126.72;;
28577;SDS011;15769;52.248;15.818;2023-02-05T21:21:47;388.57;;;132.73;;
28577;SDS011;15769;52.248;15.818;2023-02-05T21:26:50;444.80;;;141.48;;
28577;SDS011;15769;52.248;15.818;2023-02-05T21:31:54;316.23;;;105.15;;
28577;SDS011;15769;52.248;15.818;2023-02-05T21:36:59;419.40;;;135.15;;
28577;SDS011;15769;52.248;15.818;2023-02-05T21:42:01;390.65;;;130.45;;
28577;SDS011;15769;52.248;15.818;2023-02-05T21:47:04;329.47;;;110.87;;
28577;SDS011;15769;52.248;15.818;2023-02-05T21:52:07;388.35;;;133.00;;
28577;SDS011;15769;52.248;15.818;2023-02-05T21:57:11;373.13;;;123.97;;
28577;SDS011;15769;52.248;15.818;2023-02-05T22:02:13;320.90;;;107.68;;
28577;SDS011;15769;52.248;15.818;2023-02-05T22:07:17;245.37;;;87.93;;
28577;SDS011;15769;52.248;15.818;2023-02-05T22:12:19;273.38;;;93.50;;
28577;SDS011;15769;52.248;15.818;2023-02-05T22:17:22;219.60;;;78.13;;
28577;SDS011;15769;52.248;15.818;2023-02-05T22:22:25;226.77;;;81.00;;
28577;SDS011;15769;52.248;15.818;2023-02-05T22:27:28;250.83;;;87.60;;
28577;SDS011;15769;52.248;15.818;2023-02-05T22:32:31;386.88;;;126.45;;
28577;SDS011;15769;52.248;15.818;2023-02-05T22:37:34;412.75;;;133.63;;
28577;SDS011;15769;52.248;15.818;2023-02-05T22:42:38;362.45;;;120.85;;
28577;SDS011;15769;52.248;15.818;2023-02-05T22:47:41;341.52;;;111.00;;
28577;SDS011;15769;52.248;15.818;2023-02-05T22:52:44;300.85;;;99.18;;
28577;SDS011;15769;52.248;15.818;2023-02-05T22:57:46;257.20;;;86.97;;
28577;SDS011;15769;52.248;15.818;2023-02-05T23:02:49;272.10;;;94.18;;
28577;SDS011;15769;52.248;15.818;2023-02-05T23:07:51;321.15;;;105.25;;
28577;SDS011;15769;52.248;15.818;2023-02-05T23:12:54;361.30;;;116.70;;
28577;SDS011;15769;52.248;15.818;2023-02-05T23:17:57;379.13;;;121.37;;
28577;SDS011;15769;52.248;15.818;2023-02-05T23:23:07;295.53;;;98.50;;
28577;SDS011;15769;52.248;15.818;2023-02-05T23:28:09;361.33;;;119.13;;
28577;SDS011;15769;52.248;15.818;2023-02-05T23:33:12;340.65;;;113.30;;
28577;SDS011;15769;52.248;15.818;2023-02-05T23:38:14;326.23;;;109.57;;
28577;SDS011;15769;52.248;15.818;2023-02-05T23:43:17;322.97;;;101.57;;
28577;SDS011;15769;52.248;15.818;2023-02-05T23:48:20;304.60;;;96.13;;
28577;SDS011;15769;52.248;15.818;2023-02-05T23:53:22;298.02;;;94.13;;
